»·PEaware :: N524DS KSBA-KEMT

N524DS :: KSBA-KEMT

FLIGHT INFORMATION

Flight Status: Arrived
Operator: Privately registered:
United States
More flights under this callsign
Pilot: Wayne M. (1794)
Aircraft: Unknown
(DA40)
More flights by this aircraft type
Origin: KSBA Santa Barbara Mun
United States
Destination: KEMT El Monte
United States
More flights between these airports :: More routes between these airports
Route: +KWANG CMA VNY V186 PDZ
File this flight plan on PilotEdge
Remarks: Instrument student
Altitude:
(Current/Filed)
5,000ft
Speed:
(Current/Filed)
125kts
Departed: 23-Feb-15 03:10 PM
Arrived: 23-Feb-15 04:08 PM
Distance/Time
Traveled:
92nm/0:58
Distance/Time
To Go:
Arrived

Flight Plot

Page will automatically refresh every two minutes.


Map Options




Map Legend


Flown Route
Filed Route
Departure Airport
Arrival Airport
Navaid (VOR, NDB)
Fix

Horizontal Profiles

Position Reports

Time Latitude Longitude Heading Altitude Ground
Speed
23-Feb-15 14:53 34.432314 -119.835121 72 17ft 0kts
23-Feb-15 14:54 34.432314 -119.835121 72 17ft 0kts
23-Feb-15 14:55 34.432314 -119.835121 72 17ft 0kts
23-Feb-15 14:56 34.432314 -119.835121 72 17ft 0kts
23-Feb-15 14:57 34.432314 -119.835121 72 17ft 0kts
23-Feb-15 14:58 34.432314 -119.835121 72 17ft 0kts
23-Feb-15 14:59 34.432314 -119.835121 72 17ft 0kts
23-Feb-15 15:00 34.432532 -119.834349 205 17ft 2kts
23-Feb-15 15:01 34.431148 -119.837480 249 17ft 9kts
23-Feb-15 15:02 34.430456 -119.839600 227 17ft 0kts
23-Feb-15 15:03 34.430341 -119.839816 238 17ft 7kts
23-Feb-15 15:04 34.417227 -119.836974 158 672ft 71kts
23-Feb-15 15:05 34.392144 -119.828956 164 1406ft 121kts
23-Feb-15 15:06 34.358404 -119.818270 164 1908ft 130kts
23-Feb-15 15:07 34.323410 -119.807172 164 2408ft 130kts
23-Feb-15 15:08 34.288713 -119.796201 164 2904ft 129kts
23-Feb-15 15:09 34.252141 -119.784635 164 2947ft 141kts
23-Feb-15 15:10 34.216816 -119.773472 164 2946ft 129kts
23-Feb-15 15:11 34.183936 -119.759407 122 3021ft 124kts
23-Feb-15 15:12 34.184243 -119.720232 90 3494ft 117kts
23-Feb-15 15:13 34.186047 -119.682743 90 3970ft 115kts
23-Feb-15 15:14 34.187778 -119.646067 90 4441ft 115kts
23-Feb-15 15:15 34.189515 -119.608787 90 4925ft 122kts
23-Feb-15 15:16 34.191380 -119.568316 89 5406ft 133kts
23-Feb-15 15:17 34.193383 -119.524856 88 5855ft 138kts
23-Feb-15 15:18 34.195624 -119.475974 88 5099ft 164kts
23-Feb-15 15:19 34.197811 -119.428179 88 5000ft 152kts
23-Feb-15 15:20 34.199785 -119.384270 88 5000ft 150kts
23-Feb-15 15:21 34.201637 -119.342751 88 5001ft 150kts
23-Feb-15 15:22 34.203430 -119.302278 88 5001ft 150kts
23-Feb-15 15:23 34.205138 -119.263521 88 5020ft 150kts
23-Feb-15 15:24 34.206850 -119.224427 88 5022ft 150kts
23-Feb-15 15:25 34.208752 -119.180579 89 5023ft 150kts
23-Feb-15 15:26 34.210577 -119.138099 89 5023ft 150kts
23-Feb-15 15:27 34.212488 -119.090031 91 5024ft 148kts
23-Feb-15 15:28 34.213521 -119.042658 91 5030ft 151kts
23-Feb-15 15:29 34.214371 -119.001430 92 5025ft 152kts
23-Feb-15 15:30 34.215154 -118.962802 91 5056ft 153kts
23-Feb-15 15:31 34.215937 -118.923807 92 5072ft 153kts
23-Feb-15 15:32 34.216854 -118.881857 92 5066ft 152kts
23-Feb-15 15:33 34.217730 -118.842978 92 5072ft 152kts
23-Feb-15 15:34 34.218495 -118.804631 92 5071ft 152kts
23-Feb-15 15:35 34.219206 -118.767454 92 5042ft 146kts
23-Feb-15 15:36 34.219895 -118.729399 92 5078ft 153kts
23-Feb-15 15:37 34.220451 -118.699131 92 5051ft 152kts
23-Feb-15 15:38 34.221127 -118.661379 91 5023ft 151kts
23-Feb-15 15:39 34.221777 -118.624049 91 5040ft 152kts
23-Feb-15 15:40 34.222384 -118.588614 91 5036ft 151kts
23-Feb-15 15:41 34.222979 -118.553483 90 5033ft 150kts
23-Feb-15 15:42 34.223568 -118.518131 89 5034ft 151kts
23-Feb-15 15:43 34.220913 -118.482543 109 5030ft 138kts
23-Feb-15 15:44 34.212542 -118.453622 109 5027ft 101kts
23-Feb-15 15:45 34.205799 -118.431031 109 5041ft 98kts
23-Feb-15 15:46 34.198253 -118.405905 109 5041ft 107kts
23-Feb-15 15:47 34.189914 -118.378177 109 5040ft 110kts
23-Feb-15 15:48 34.180759 -118.347764 109 5040ft 110kts
23-Feb-15 15:49 34.164796 -118.318596 133 4811ft 124kts
23-Feb-15 15:50 34.145182 -118.284540 124 4327ft 123kts
23-Feb-15 15:51 34.129786 -118.258031 124 4047ft 108kts
23-Feb-15 15:52 34.111734 -118.227775 124 3904ft 88kts
23-Feb-15 15:53 34.096555 -118.202933 124 3917ft 99kts
23-Feb-15 15:54 34.083245 -118.181367 124 3920ft 102kts
23-Feb-15 15:55 34.067307 -118.156027 124 3921ft 98kts
23-Feb-15 15:56 34.051961 -118.132005 124 3924ft 100kts
23-Feb-15 15:57 34.038199 -118.110282 121 3870ft 105kts
23-Feb-15 15:58 34.027576 -118.083913 99 3181ft 94kts
23-Feb-15 15:59 34.037041 -118.062489 28 2009ft 100kts
23-Feb-15 16:00 34.057059 -118.051139 24 1109ft 72kts
23-Feb-15 16:01 34.073275 -118.042008 24 639ft 63kts
23-Feb-15 16:02 34.085443 -118.035174 95 300ft 0kts
23-Feb-15 16:03 34.085427 -118.034643 94 300ft 0kts
23-Feb-15 16:04 34.085427 -118.034643 94 300ft 0kts

Navigation Log

Ident Type
Flight plan parsing failed, navigation log unavailable